sensor_id;sensor_type;location;lat;lon;timestamp;temperature;humidity
28193;DHT22;15473;50.840;3.396;2023-04-03T00:00:25;1.60;99.90
28193;DHT22;15473;50.840;3.396;2023-04-03T00:02:55;1.60;99.90
28193;DHT22;15473;50.840;3.396;2023-04-03T00:05:25;1.60;99.90
28193;DHT22;15473;50.840;3.396;2023-04-03T00:07:55;1.60;99.90
28193;DHT22;15473;50.840;3.396;2023-04-03T00:10:25;1.50;99.90
28193;DHT22;15473;50.840;3.396;2023-04-03T00:12:55;1.50;99.90
28193;DHT22;15473;50.840;3.396;2023-04-03T00:15:32;1.50;99.90
28193;DHT22;15473;50.840;3.396;2023-04-03T00:18:03;1.50;99.90
28193;DHT22;15473;50.840;3.396;2023-04-03T00:20:33;1.40;99.90
28193;DHT22;15473;50.840;3.396;2023-04-03T00:23:03;1.40;99.90
28193;DHT22;15473;50.840;3.396;2023-04-03T00:25:35;1.40;99.90
28193;DHT22;15473;50.840;3.396;2023-04-03T00:28:06;1.40;99.90
28193;DHT22;15473;50.840;3.396;2023-04-03T00:30:36;1.30;99.90
28193;DHT22;15473;50.840;3.396;2023-04-03T00:33:06;1.30;99.90
28193;DHT22;15473;50.840;3.396;2023-04-03T00:35:43;1.30;99.90
28193;DHT22;15473;50.840;3.396;2023-04-03T00:38:15;1.30;99.90
28193;DHT22;15473;50.840;3.396;2023-04-03T00:40:57;1.30;99.90
28193;DHT22;15473;50.840;3.396;2023-04-03T00:43:34;1.20;99.90
28193;DHT22;15473;50.840;3.396;2023-04-03T00:46:10;1.20;99.90
28193;DHT22;15473;50.840;3.396;2023-04-03T00:48:48;1.20;99.90
28193;DHT22;15473;50.840;3.396;2023-04-03T00:51:21;1.20;99.90
28193;DHT22;15473;50.840;3.396;2023-04-03T00:53:54;1.10;99.90
28193;DHT22;15473;50.840;3.396;2023-04-03T00:56:27;1.10;99.90
28193;DHT22;15473;50.840;3.396;2023-04-03T00:59:15;1.10;99.90
28193;DHT22;15473;50.840;3.396;2023-04-03T01:01:47;1.10;99.90
28193;DHT22;15473;50.840;3.396;2023-04-03T01:09:57;1.00;99.90
28193;DHT22;15473;50.840;3.396;2023-04-03T01:12:37;1.00;99.90
28193;DHT22;15473;50.840;3.396;2023-04-03T01:15:10;1.00;99.90
28193;DHT22;15473;50.840;3.396;2023-04-03T01:17:49;1.00;99.90
28193;DHT22;15473;50.840;3.396;2023-04-03T01:20:36;1.00;99.90
28193;DHT22;15473;50.840;3.396;2023-04-03T01:25:47;1.00;99.90
28193;DHT22;15473;50.840;3.396;2023-04-03T01:28:27;0.90;99.90
28193;DHT22;15473;50.840;3.396;2023-04-03T01:33:46;0.90;99.90
28193;DHT22;15473;50.840;3.396;2023-04-03T01:36:26;0.90;99.90
28193;DHT22;15473;50.840;3.396;2023-04-03T01:38:58;0.90;99.90
28193;DHT22;15473;50.840;3.396;2023-04-03T01:41:35;0.90;99.90
28193;DHT22;15473;50.840;3.396;2023-04-03T01:44:05;0.80;99.90
28193;DHT22;15473;50.840;3.396;2023-04-03T01:46:42;0.80;99.90
28193;DHT22;15473;50.840;3.396;2023-04-03T01:49:16;0.80;99.90
28193;DHT22;15473;50.840;3.396;2023-04-03T01:51:46;0.80;99.90
28193;DHT22;15473;50.840;3.396;2023-04-03T01:54:22;0.80;99.90
28193;DHT22;15473;50.840;3.396;2023-04-03T01:56:52;0.70;99.90
28193;DHT22;15473;50.840;3.396;2023-04-03T01:59:24;0.70;99.90
28193;DHT22;15473;50.840;3.396;2023-04-03T02:01:54;0.70;99.90
28193;DHT22;15473;50.840;3.396;2023-04-03T02:04:24;0.70;99.90
28193;DHT22;15473;50.840;3.396;2023-04-03T02:06:54;0.70;99.90
28193;DHT22;15473;50.840;3.396;2023-04-03T02:09:28;0.70;99.90
28193;DHT22;15473;50.840;3.396;2023-04-03T02:12:05;0.60;99.90
28193;DHT22;15473;50.840;3.396;2023-04-03T02:14:42;0.70;99.90
28193;DHT22;15473;50.840;3.396;2023-04-03T02:17:12;0.60;99.90
28193;DHT22;15473;50.840;3.396;2023-04-03T02:19:48;0.60;99.90
28193;DHT22;15473;50.840;3.396;2023-04-03T02:22:19;0.60;99.90
28193;DHT22;15473;50.840;3.396;2023-04-03T02:24:55;0.60;99.90
28193;DHT22;15473;50.840;3.396;2023-04-03T02:27:29;0.60;99.90
28193;DHT22;15473;50.840;3.396;2023-04-03T02:30:00;0.60;99.90
28193;DHT22;15473;50.840;3.396;2023-04-03T02:32:36;0.60;99.90
28193;DHT22;15473;50.840;3.396;2023-04-03T02:35:07;0.60;99.90
28193;DHT22;15473;50.840;3.396;2023-04-03T02:37:43;0.50;99.90
28193;DHT22;15473;50.840;3.396;2023-04-03T02:40:13;0.60;99.90
28193;DHT22;15473;50.840;3.396;2023-04-03T02:42:44;0.50;99.90
28193;DHT22;15473;50.840;3.396;2023-04-03T02:45:15;0.50;99.90
28193;DHT22;15473;50.840;3.396;2023-04-03T02:47:45;0.50;99.90
28193;DHT22;15473;50.840;3.396;2023-04-03T02:50:22;0.50;99.90
28193;DHT22;15473;50.840;3.396;2023-04-03T02:52:52;0.50;99.90
28193;DHT22;15473;50.840;3.396;2023-04-03T02:55:23;0.50;99.90
28193;DHT22;15473;50.840;3.396;2023-04-03T02:57:54;0.50;99.90
28193;DHT22;15473;50.840;3.396;2023-04-03T03:00:43;0.40;99.90
28193;DHT22;15473;50.840;3.396;2023-04-03T03:03:13;0.40;99.90
28193;DHT22;15473;50.840;3.396;2023-04-03T03:05:43;0.40;99.90
28193;DHT22;15473;50.840;3.396;2023-04-03T03:08:14;0.40;99.90
28193;DHT22;15473;50.840;3.396;2023-04-03T03:10:44;0.40;99.90
28193;DHT22;15473;50.840;3.396;2023-04-03T03:13:22;0.40;99.90
28193;DHT22;15473;50.840;3.396;2023-04-03T03:15:52;0.40;99.90
28193;DHT22;15473;50.840;3.396;2023-04-03T03:18:24;0.30;99.90
28193;DHT22;15473;50.840;3.396;2023-04-03T03:20:56;0.30;99.90
28193;DHT22;15473;50.840;3.396;2023-04-03T03:23:28;0.30;99.90
28193;DHT22;15473;50.840;3.396;2023-04-03T03:28:50;0.30;99.90
28193;DHT22;15473;50.840;3.396;2023-04-03T03:31:20;0.30;99.90
28193;DHT22;15473;50.840;3.396;2023-04-03T03:33:56;0.30;99.90
28193;DHT22;15473;50.840;3.396;2023-04-03T03:36:26;0.20;99.90
28193;DHT22;15473;50.840;3.396;2023-04-03T03:38:56;0.20;99.90
28193;DHT22;15473;50.840;3.396;2023-04-03T03:41:30;0.20;99.90
28193;DHT22;15473;50.840;3.396;2023-04-03T03:44:01;0.20;99.90
28193;DHT22;15473;50.840;3.396;2023-04-03T03:46:31;0.20;99.90
28193;DHT22;15473;50.840;3.396;2023-04-03T03:49:01;0.20;99.90
28193;DHT22;15473;50.840;3.396;2023-04-03T03:51:35;0.10;99.90
28193;DHT22;15473;50.840;3.396;2023-04-03T03:54:07;0.10;99.90
28193;DHT22;15473;50.840;3.396;2023-04-03T03:56:37;0.10;99.90
28193;DHT22;15473;50.840;3.396;2023-04-03T03:59:13;0.10;99.90
28193;DHT22;15473;50.840;3.396;2023-04-03T04:01:45;0.10;99.90
28193;DHT22;15473;50.840;3.396;2023-04-03T04:04:16;0.10;99.90
28193;DHT22;15473;50.840;3.396;2023-04-03T04:06:46;0.10;99.90
28193;DHT22;15473;50.840;3.396;2023-04-03T04:09:16;0.10;99.90
28193;DHT22;15473;50.840;3.396;2023-04-03T04:11:48;0.10;99.90
28193;DHT22;15473;50.840;3.396;2023-04-03T04:14:25;0.10;99.90
28193;DHT22;15473;50.840;3.396;2023-04-03T04:16:55;0.10;99.90
28193;DHT22;15473;50.840;3.396;2023-04-03T04:19:25;0.00;99.90
28193;DHT22;15473;50.840;3.396;2023-04-03T04:21:55;0.00;99.90
28193;DHT22;15473;50.840;3.396;2023-04-03T04:24:32;0.00;99.90
28193;DHT22;15473;50.840;3.396;2023-04-03T04:27:02;0.00;99.90
28193;DHT22;15473;50.840;3.396;2023-04-03T04:29:45;0.00;99.90
28193;DHT22;15473;50.840;3.396;2023-04-03T04:32:15;0.00;99.90
28193;DHT22;15473;50.840;3.396;2023-04-03T04:34:45;0.00;99.90
28193;DHT22;15473;50.840;3.396;2023-04-03T04:37:22;0.00;99.90
28193;DHT22;15473;50.840;3.396;2023-04-03T04:39:59;-0.10;99.90
28193;DHT22;15473;50.840;3.396;2023-04-03T04:42:30;-0.10;99.90
28193;DHT22;15473;50.840;3.396;2023-04-03T04:45:02;-0.10;99.90
28193;DHT22;15473;50.840;3.396;2023-04-03T04:47:32;-0.10;99.90
28193;DHT22;15473;50.840;3.396;2023-04-03T04:50:05;-0.10;99.90
28193;DHT22;15473;50.840;3.396;2023-04-03T04:52:41;-0.10;99.90
28193;DHT22;15473;50.840;3.396;2023-04-03T04:55:17;-0.10;99.90
28193;DHT22;15473;50.840;3.396;2023-04-03T04:57:47;-0.10;99.90
28193;DHT22;15473;50.840;3.396;2023-04-03T05:00:19;-0.10;99.90
28193;DHT22;15473;50.840;3.396;2023-04-03T05:02:55;-0.10;99.90
28193;DHT22;15473;50.840;3.396;2023-04-03T05:05:25;-0.10;99.90
28193;DHT22;15473;50.840;3.396;2023-04-03T05:07:57;-0.10;99.90
28193;DHT22;15473;50.840;3.396;2023-04-03T05:10:33;-0.20;99.90
28193;DHT22;15473;50.840;3.396;2023-04-03T05:13:03;-0.20;99.90
28193;DHT22;15473;50.840;3.396;2023-04-03T05:15:33;-0.20;99.90
28193;DHT22;15473;50.840;3.396;2023-04-03T05:18:03;-0.10;99.90
28193;DHT22;15473;50.840;3.396;2023-04-03T05:20:34;-0.20;99.90
28193;DHT22;15473;50.840;3.396;2023-04-03T05:23:06;-0.20;99.90
28193;DHT22;15473;50.840;3.396;2023-04-03T05:25:38;-0.10;99.90
28193;DHT22;15473;50.840;3.396;2023-04-03T05:28:08;-0.20;99.90
28193;DHT22;15473;50.840;3.396;2023-04-03T05:30:38;-0.20;99.90
28193;DHT22;15473;50.840;3.396;2023-04-03T05:33:09;-0.20;99.90
28193;DHT22;15473;50.840;3.396;2023-04-03T05:35:43;-0.10;99.90
28193;DHT22;15473;50.840;3.396;2023-04-03T05:38:14;-0.10;99.90
28193;DHT22;15473;50.840;3.396;2023-04-03T05:41:05;-0.10;99.90
28193;DHT22;15473;50.840;3.396;2023-04-03T05:43:35;-0.10;99.90
28193;DHT22;15473;50.840;3.396;2023-04-03T05:46:18;-0.10;99.90
28193;DHT22;15473;50.840;3.396;2023-04-03T05:48:48;-0.10;99.90
28193;DHT22;15473;50.840;3.396;2023-04-03T05:51:22;0.00;99.90
28193;DHT22;15473;50.840;3.396;2023-04-03T05:54:00;0.00;99.90
28193;DHT22;15473;50.840;3.396;2023-04-03T05:56:47;0.00;99.90
28193;DHT22;15473;50.840;3.396;2023-04-03T05:59:18;0.00;99.90
28193;DHT22;15473;50.840;3.396;2023-04-03T06:01:55;0.10;99.90
28193;DHT22;15473;50.840;3.396;2023-04-03T06:04:25;0.10;99.90
28193;DHT22;15473;50.840;3.396;2023-04-03T06:06:57;0.20;99.90
28193;DHT22;15473;50.840;3.396;2023-04-03T06:09:31;0.20;99.90
28193;DHT22;15473;50.840;3.396;2023-04-03T06:12:01;0.30;99.90
28193;DHT22;15473;50.840;3.396;2023-04-03T06:14:38;0.30;99.90
28193;DHT22;15473;50.840;3.396;2023-04-03T06:17:09;0.30;99.90
28193;DHT22;15473;50.840;3.396;2023-04-03T06:19:47;0.40;99.90
28193;DHT22;15473;50.840;3.396;2023-04-03T06:22:25;0.50;99.90
28193;DHT22;15473;50.840;3.396;2023-04-03T06:24:55;0.50;99.90
28193;DHT22;15473;50.840;3.396;2023-04-03T06:27:32;0.60;99.90
28193;DHT22;15473;50.840;3.396;2023-04-03T06:30:02;0.60;99.90
28193;DHT22;15473;50.840;3.396;2023-04-03T06:32:51;0.70;99.90
28193;DHT22;15473;50.840;3.396;2023-04-03T06:35:21;0.70;99.90
28193;DHT22;15473;50.840;3.396;2023-04-03T06:38:05;0.80;99.90
28193;DHT22;15473;50.840;3.396;2023-04-03T06:40:37;0.90;99.90
28193;DHT22;15473;50.840;3.396;2023-04-03T06:43:07;1.00;99.90
28193;DHT22;15473;50.840;3.396;2023-04-03T06:45:37;1.00;99.90
28193;DHT22;15473;50.840;3.396;2023-04-03T06:48:13;1.10;99.90
28193;DHT22;15473;50.840;3.396;2023-04-03T06:50:44;1.20;99.90
28193;DHT22;15473;50.840;3.396;2023-04-03T06:53:14;1.30;99.90
28193;DHT22;15473;50.840;3.396;2023-04-03T06:55:50;1.40;99.90
28193;DHT22;15473;50.840;3.396;2023-04-03T06:58:20;1.40;99.90
28193;DHT22;15473;50.840;3.396;2023-04-03T07:00:54;1.50;99.90
28193;DHT22;15473;50.840;3.396;2023-04-03T07:03:24;1.60;99.90
28193;DHT22;15473;50.840;3.396;2023-04-03T07:06:01;1.70;99.90
28193;DHT22;15473;50.840;3.396;2023-04-03T07:08:31;1.80;99.90
28193;DHT22;15473;50.840;3.396;2023-04-03T07:11:03;1.90;99.90
28193;DHT22;15473;50.840;3.396;2023-04-03T07:13:40;1.90;99.90
28193;DHT22;15473;50.840;3.396;2023-04-03T07:16:10;2.00;99.90
28193;DHT22;15473;50.840;3.396;2023-04-03T07:18:48;2.10;99.90
28193;DHT22;15473;50.840;3.396;2023-04-03T07:21:20;2.20;99.90
28193;DHT22;15473;50.840;3.396;2023-04-03T07:23:57;2.30;99.90
28193;DHT22;15473;50.840;3.396;2023-04-03T07:26:27;2.40;99.90
28193;DHT22;15473;50.840;3.396;2023-04-03T07:29:03;2.50;99.90
28193;DHT22;15473;50.840;3.396;2023-04-03T07:31:34;2.60;99.90
28193;DHT22;15473;50.840;3.396;2023-04-03T07:34:18;2.70;99.90
28193;DHT22;15473;50.840;3.396;2023-04-03T07:36:55;2.70;99.90
28193;DHT22;15473;50.840;3.396;2023-04-03T07:39:32;2.90;99.90
28193;DHT22;15473;50.840;3.396;2023-04-03T07:42:08;3.00;99.90
28193;DHT22;15473;50.840;3.396;2023-04-03T07:44:45;3.10;99.90
28193;DHT22;15473;50.840;3.396;2023-04-03T07:47:18;3.30;99.90
28193;DHT22;15473;50.840;3.396;2023-04-03T07:50:02;3.40;99.90
28193;DHT22;15473;50.840;3.396;2023-04-03T07:52:38;3.60;99.90
28193;DHT22;15473;50.840;3.396;2023-04-03T07:55:08;3.80;99.90
28193;DHT22;15473;50.840;3.396;2023-04-03T07:57:45;4.00;99.90
28193;DHT22;15473;50.840;3.396;2023-04-03T08:00:15;4.20;99.90
28193;DHT22;15473;50.840;3.396;2023-04-03T08:02:46;4.40;99.90
28193;DHT22;15473;50.840;3.396;2023-04-03T08:05:21;4.50;99.90
28193;DHT22;15473;50.840;3.396;2023-04-03T08:07:55;4.70;99.90
28193;DHT22;15473;50.840;3.396;2023-04-03T08:10:32;4.90;99.90
28193;DHT22;15473;50.840;3.396;2023-04-03T08:13:07;5.10;99.90
28193;DHT22;15473;50.840;3.396;2023-04-03T08:15:37;5.30;99.90
28193;DHT22;15473;50.840;3.396;2023-04-03T08:18:12;5.50;99.90
28193;DHT22;15473;50.840;3.396;2023-04-03T08:20:43;5.70;99.90
28193;DHT22;15473;50.840;3.396;2023-04-03T08:23:13;5.90;99.90
28193;DHT22;15473;50.840;3.396;2023-04-03T08:25:45;6.10;99.90
28193;DHT22;15473;50.840;3.396;2023-04-03T08:28:16;6.30;99.90
28193;DHT22;15473;50.840;3.396;2023-04-03T08:30:46;6.50;99.90
28193;DHT22;15473;50.840;3.396;2023-04-03T08:33:22;6.80;99.90
28193;DHT22;15473;50.840;3.396;2023-04-03T08:35:52;7.00;99.90
28193;DHT22;15473;50.840;3.396;2023-04-03T08:38:24;7.30;99.90
28193;DHT22;15473;50.840;3.396;2023-04-03T08:41:02;7.60;99.90
28193;DHT22;15473;50.840;3.396;2023-04-03T08:52:55;9.50;99.90
28193;DHT22;15473;50.840;3.396;2023-04-03T08:55:01;10.20;99.90
28193;DHT22;15473;50.840;3.396;2023-04-03T08:57:41;10.80;99.90
28193;DHT22;15473;50.840;3.396;2023-04-03T09:02:50;11.80;99.90
28193;DHT22;15473;50.840;3.396;2023-04-03T09:05:39;12.20;99.90
28193;DHT22;15473;50.840;3.396;2023-04-03T09:17:40;13.40;99.90
28193;DHT22;15473;50.840;3.396;2023-04-03T09:22:53;13.80;99.90
28193;DHT22;15473;50.840;3.396;2023-04-03T09:25:35;14.00;99.90
28193;DHT22;15473;50.840;3.396;2023-04-03T09:28:07;14.10;99.90
28193;DHT22;15473;50.840;3.396;2023-04-03T09:30:45;14.30;99.90
28193;DHT22;15473;50.840;3.396;2023-04-03T09:33:16;14.40;99.90
28193;DHT22;15473;50.840;3.396;2023-04-03T09:38:37;14.90;99.90
28193;DHT22;15473;50.840;3.396;2023-04-03T09:41:18;15.30;99.90
28193;DHT22;15473;50.840;3.396;2023-04-03T09:43:50;15.70;99.90
28193;DHT22;15473;50.840;3.396;2023-04-03T09:46:32;16.20;99.90
28193;DHT22;15473;50.840;3.396;2023-04-03T09:49:04;17.00;99.90
28193;DHT22;15473;50.840;3.396;2023-04-03T09:51:39;18.00;99.90
28193;DHT22;15473;50.840;3.396;2023-04-03T09:54:37;19.10;99.90
28193;DHT22;15473;50.840;3.396;2023-04-03T09:57:13;20.10;99.90
28193;DHT22;15473;50.840;3.396;2023-04-03T09:59:57;21.30;99.90
28193;DHT22;15473;50.840;3.396;2023-04-03T10:05:04;22.60;99.90
28193;DHT22;15473;50.840;3.396;2023-04-03T10:07:36;23.30;99.90
28193;DHT22;15473;50.840;3.396;2023-04-03T10:10:18;23.80;99.90
28193;DHT22;15473;50.840;3.396;2023-04-03T10:15:47;24.80;99.90
28193;DHT22;15473;50.840;3.396;2023-04-03T10:18:44;25.20;99.90
28193;DHT22;15473;50.840;3.396;2023-04-03T10:21:19;25.30;99.90
28193;DHT22;15473;50.840;3.396;2023-04-03T10:23:57;25.30;99.90
28193;DHT22;15473;50.840;3.396;2023-04-03T10:29:42;25.10;99.90
28193;DHT22;15473;50.840;3.396;2023-04-03T10:38:31;25.50;99.90
28193;DHT22;15473;50.840;3.396;2023-04-03T10:47:17;28.80;99.90
28193;DHT22;15473;50.840;3.396;2023-04-03T10:49:51;29.40;99.90
28193;DHT22;15473;50.840;3.396;2023-04-03T10:52:24;29.80;99.90
28193;DHT22;15473;50.840;3.396;2023-04-03T10:55:04;30.20;99.90
28193;DHT22;15473;50.840;3.396;2023-04-03T10:57:34;30.80;99.90
28193;DHT22;15473;50.840;3.396;2023-04-03T11:00:07;31.30;99.20
28193;DHT22;15473;50.840;3.396;2023-04-03T11:02:45;31.80;99.20
28193;DHT22;15473;50.840;3.396;2023-04-03T11:05:28;32.20;98.70
28193;DHT22;15473;50.840;3.396;2023-04-03T11:07:59;32.10;96.70
28193;DHT22;15473;50.840;3.396;2023-04-03T11:13:50;32.30;97.10
28193;DHT22;15473;50.840;3.396;2023-04-03T11:16:24;32.50;95.20
28193;DHT22;15473;50.840;3.396;2023-04-03T11:19:03;32.60;94.30
28193;DHT22;15473;50.840;3.396;2023-04-03T11:21:40;32.90;94.70
28193;DHT22;15473;50.840;3.396;2023-04-03T11:24:20;33.10;95.30
28193;DHT22;15473;50.840;3.396;2023-04-03T11:26:50;33.20;92.60
28193;DHT22;15473;50.840;3.396;2023-04-03T11:29:24;33.40;92.50
28193;DHT22;15473;50.840;3.396;2023-04-03T11:34:59;33.70;91.60
28193;DHT22;15473;50.840;3.396;2023-04-03T11:37:41;33.90;91.30
28193;DHT22;15473;50.840;3.396;2023-04-03T11:40:28;32.60;86.20
28193;DHT22;15473;50.840;3.396;2023-04-03T11:43:15;31.20;81.50
28193;DHT22;15473;50.840;3.396;2023-04-03T11:53:49;28.50;88.40
28193;DHT22;15473;50.840;3.396;2023-04-03T11:56:27;28.00;85.20
28193;DHT22;15473;50.840;3.396;2023-04-03T12:01:54;28.20;85.50
28193;DHT22;15473;50.840;3.396;2023-04-03T12:04:26;28.10;86.70
28193;DHT22;15473;50.840;3.396;2023-04-03T12:07:12;28.40;86.80
28193;DHT22;15473;50.840;3.396;2023-04-03T12:12:27;28.50;86.50
28193;DHT22;15473;50.840;3.396;2023-04-03T12:15:11;28.30;82.70
28193;DHT22;15473;50.840;3.396;2023-04-03T12:17:28;27.50;82.40
28193;DHT22;15473;50.840;3.396;2023-04-03T12:19:59;26.40;82.60
28193;DHT22;15473;50.840;3.396;2023-04-03T12:22:29;25.20;86.30
28193;DHT22;15473;50.840;3.396;2023-04-03T12:25:40;24.00;88.90
28193;DHT22;15473;50.840;3.396;2023-04-03T12:27:40;23.00;90.90
28193;DHT22;15473;50.840;3.396;2023-04-03T12:30:26;22.10;91.30
28193;DHT22;15473;50.840;3.396;2023-04-03T12:33:02;21.60;93.70
28193;DHT22;15473;50.840;3.396;2023-04-03T12:47:00;21.20;93.20
28193;DHT22;15473;50.840;3.396;2023-04-03T12:49:41;20.60;93.00
28193;DHT22;15473;50.840;3.396;2023-04-03T12:52:19;20.50;92.20
28193;DHT22;15473;50.840;3.396;2023-04-03T12:54:50;20.30;92.60
28193;DHT22;15473;50.840;3.396;2023-04-03T12:57:26;20.30;95.10
28193;DHT22;15473;50.840;3.396;2023-04-03T12:59:56;20.20;93.90
28193;DHT22;15473;50.840;3.396;2023-04-03T13:02:31;20.20;93.00
28193;DHT22;15473;50.840;3.396;2023-04-03T13:05:13;20.40;93.00
28193;DHT22;15473;50.840;3.396;2023-04-03T13:07:42;20.50;91.90
28193;DHT22;15473;50.840;3.396;2023-04-03T13:10:15;20.70;91.60
28193;DHT22;15473;50.840;3.396;2023-04-03T13:12:57;20.90;96.00
28193;DHT22;15473;50.840;3.396;2023-04-03T13:15:45;21.40;93.00
28193;DHT22;15473;50.840;3.396;2023-04-03T13:18:29;21.50;91.40
28193;DHT22;15473;50.840;3.396;2023-04-03T13:21:16;21.60;92.70
28193;DHT22;15473;50.840;3.396;2023-04-03T13:23:49;21.70;91.40
28193;DHT22;15473;50.840;3.396;2023-04-03T13:26:21;22.00;91.60
28193;DHT22;15473;50.840;3.396;2023-04-03T13:28:53;21.90;90.90
28193;DHT22;15473;50.840;3.396;2023-04-03T13:31:30;21.80;92.20
28193;DHT22;15473;50.840;3.396;2023-04-03T13:34:12;22.00;93.80
28193;DHT22;15473;50.840;3.396;2023-04-03T13:39:40;21.80;93.00
28193;DHT22;15473;50.840;3.396;2023-04-03T13:42:25;21.80;89.40
28193;DHT22;15473;50.840;3.396;2023-04-03T13:45:19;21.80;93.10
28193;DHT22;15473;50.840;3.396;2023-04-03T13:47:50;22.00;93.00
28193;DHT22;15473;50.840;3.396;2023-04-03T13:50:24;22.10;94.00
28193;DHT22;15473;50.840;3.396;2023-04-03T13:53:08;22.10;92.90
28193;DHT22;15473;50.840;3.396;2023-04-03T13:55:35;21.80;92.90
28193;DHT22;15473;50.840;3.396;2023-04-03T13:58:27;21.70;93.80
28193;DHT22;15473;50.840;3.396;2023-04-03T14:01:18;21.60;93.50
28193;DHT22;15473;50.840;3.396;2023-04-03T14:04:01;21.80;93.90
28193;DHT22;15473;50.840;3.396;2023-04-03T14:06:38;21.80;92.10
28193;DHT22;15473;50.840;3.396;2023-04-03T14:09:08;21.70;92.70
28193;DHT22;15473;50.840;3.396;2023-04-03T14:11:39;21.60;91.90
28193;DHT22;15473;50.840;3.396;2023-04-03T14:14:20;21.60;91.90
28193;DHT22;15473;50.840;3.396;2023-04-03T14:16:48;21.50;91.10
28193;DHT22;15473;50.840;3.396;2023-04-03T14:19:33;21.40;91.90
28193;DHT22;15473;50.840;3.396;2023-04-03T14:22:19;21.20;92.80
28193;DHT22;15473;50.840;3.396;2023-04-03T14:24:51;21.40;93.10
28193;DHT22;15473;50.840;3.396;2023-04-03T14:27:25;21.40;92.20
28193;DHT22;15473;50.840;3.396;2023-04-03T14:29:57;21.30;92.30
28193;DHT22;15473;50.840;3.396;2023-04-03T14:32:27;21.30;91.00
28193;DHT22;15473;50.840;3.396;2023-04-03T14:34:57;21.50;93.10
28193;DHT22;15473;50.840;3.396;2023-04-03T14:37:29;21.40;91.70
28193;DHT22;15473;50.840;3.396;2023-04-03T14:40:01;21.40;92.90
28193;DHT22;15473;50.840;3.396;2023-04-03T14:42:35;21.40;90.20
28193;DHT22;15473;50.840;3.396;2023-04-03T14:45:09;21.20;91.50
28193;DHT22;15473;50.840;3.396;2023-04-03T14:47:46;21.20;92.50
28193;DHT22;15473;50.840;3.396;2023-04-03T14:50:22;21.20;90.80
28193;DHT22;15473;50.840;3.396;2023-04-03T14:52:55;21.30;91.70
28193;DHT22;15473;50.840;3.396;2023-04-03T14:55:26;21.20;92.60
28193;DHT22;15473;50.840;3.396;2023-04-03T14:57:56;21.20;91.70
28193;DHT22;15473;50.840;3.396;2023-04-03T15:00:26;21.10;91.00
28193;DHT22;15473;50.840;3.396;2023-04-03T15:02:56;21.20;90.40
28193;DHT22;15473;50.840;3.396;2023-04-03T15:05:26;21.30;91.10
28193;DHT22;15473;50.840;3.396;2023-04-03T15:08:00;21.10;88.70
28193;DHT22;15473;50.840;3.396;2023-04-03T15:10:31;21.10;89.40
28193;DHT22;15473;50.840;3.396;2023-04-03T15:13:02;21.10;90.50
28193;DHT22;15473;50.840;3.396;2023-04-03T15:15:33;21.00;89.30
28193;DHT22;15473;50.840;3.396;2023-04-03T15:18:05;20.80;89.40
28193;DHT22;15473;50.840;3.396;2023-04-03T15:23:33;20.70;90.70
28193;DHT22;15473;50.840;3.396;2023-04-03T15:26:04;20.70;90.90
28193;DHT22;15473;50.840;3.396;2023-04-03T15:28:37;20.60;90.80
28193;DHT22;15473;50.840;3.396;2023-04-03T15:31:08;20.50;90.00
28193;DHT22;15473;50.840;3.396;2023-04-03T15:33:38;20.60;90.40
28193;DHT22;15473;50.840;3.396;2023-04-03T15:36:09;20.50;91.30
28193;DHT22;15473;50.840;3.396;2023-04-03T15:38:39;20.40;90.30
28193;DHT22;15473;50.840;3.396;2023-04-03T15:41:11;20.80;92.50
28193;DHT22;15473;50.840;3.396;2023-04-03T15:43:43;22.00;94.70
28193;DHT22;15473;50.840;3.396;2023-04-03T15:46:32;23.30;95.30
28193;DHT22;15473;50.840;3.396;2023-04-03T15:49:02;24.60;94.00
28193;DHT22;15473;50.840;3.396;2023-04-03T15:51:34;25.80;92.60
28193;DHT22;15473;50.840;3.396;2023-04-03T15:54:05;26.60;93.00
28193;DHT22;15473;50.840;3.396;2023-04-03T15:56:41;27.30;92.70
28193;DHT22;15473;50.840;3.396;2023-04-03T15:59:11;27.70;92.70
28193;DHT22;15473;50.840;3.396;2023-04-03T16:01:48;28.00;91.50
28193;DHT22;15473;50.840;3.396;2023-04-03T16:04:19;28.20;91.40
28193;DHT22;15473;50.840;3.396;2023-04-03T16:07:15;28.30;91.20
28193;DHT22;15473;50.840;3.396;2023-04-03T16:09:48;28.30;90.80
28193;DHT22;15473;50.840;3.396;2023-04-03T16:12:18;28.20;91.30
28193;DHT22;15473;50.840;3.396;2023-04-03T16:14:48;28.00;91.30
28193;DHT22;15473;50.840;3.396;2023-04-03T16:17:20;27.90;91.40
28193;DHT22;15473;50.840;3.396;2023-04-03T16:19:50;27.60;90.80
28193;DHT22;15473;50.840;3.396;2023-04-03T16:22:28;27.40;91.90
28193;DHT22;15473;50.840;3.396;2023-04-03T16:24:59;27.10;91.30
28193;DHT22;15473;50.840;3.396;2023-04-03T16:27:36;26.80;91.90
28193;DHT22;15473;50.840;3.396;2023-04-03T16:30:13;26.40;92.00
28193;DHT22;15473;50.840;3.396;2023-04-03T16:32:43;26.10;93.20
28193;DHT22;15473;50.840;3.396;2023-04-03T16:35:14;25.90;92.60
28193;DHT22;15473;50.840;3.396;2023-04-03T16:37:44;25.50;92.90
28193;DHT22;15473;50.840;3.396;2023-04-03T16:40:21;25.40;93.80
28193;DHT22;15473;50.840;3.396;2023-04-03T16:42:51;25.20;93.90
28193;DHT22;15473;50.840;3.396;2023-04-03T16:45:28;25.00;93.80
28193;DHT22;15473;50.840;3.396;2023-04-03T16:47:58;24.90;93.70
28193;DHT22;15473;50.840;3.396;2023-04-03T16:50:28;24.80;93.70
28193;DHT22;15473;50.840;3.396;2023-04-03T16:52:58;24.60;92.60
28193;DHT22;15473;50.840;3.396;2023-04-03T16:55:32;24.50;93.70
28193;DHT22;15473;50.840;3.396;2023-04-03T16:58:02;24.40;93.80
28193;DHT22;15473;50.840;3.396;2023-04-03T17:00:33;24.20;93.60
28193;DHT22;15473;50.840;3.396;2023-04-03T17:03:04;24.00;92.90
28193;DHT22;15473;50.840;3.396;2023-04-03T17:05:40;23.80;93.10
28193;DHT22;15473;50.840;3.396;2023-04-03T17:08:10;23.60;93.20
28193;DHT22;15473;50.840;3.396;2023-04-03T17:10:40;23.50;94.20
28193;DHT22;15473;50.840;3.396;2023-04-03T17:13:10;23.20;93.80
28193;DHT22;15473;50.840;3.396;2023-04-03T17:15:46;23.00;94.30
28193;DHT22;15473;50.840;3.396;2023-04-03T17:18:16;22.70;94.30
28193;DHT22;15473;50.840;3.396;2023-04-03T17:20:46;22.40;94.20
28193;DHT22;15473;50.840;3.396;2023-04-03T17:23:16;22.00;95.50
28193;DHT22;15473;50.840;3.396;2023-04-03T17:25:52;21.70;96.00
28193;DHT22;15473;50.840;3.396;2023-04-03T17:28:23;21.40;96.40
28193;DHT22;15473;50.840;3.396;2023-04-03T17:31:07;21.00;97.00
28193;DHT22;15473;50.840;3.396;2023-04-03T17:33:39;20.60;97.20
28193;DHT22;15473;50.840;3.396;2023-04-03T17:36:09;20.30;97.30
28193;DHT22;15473;50.840;3.396;2023-04-03T17:38:41;20.00;98.10
28193;DHT22;15473;50.840;3.396;2023-04-03T17:41:11;19.60;99.80
28193;DHT22;15473;50.840;3.396;2023-04-03T17:43:47;19.10;99.90
28193;DHT22;15473;50.840;3.396;2023-04-03T17:46:17;18.60;99.90
28193;DHT22;15473;50.840;3.396;2023-04-03T17:48:54;18.10;99.90
28193;DHT22;15473;50.840;3.396;2023-04-03T17:51:28;17.50;99.90
28193;DHT22;15473;50.840;3.396;2023-04-03T17:53:58;17.00;99.90
28193;DHT22;15473;50.840;3.396;2023-04-03T17:56:40;16.40;99.90
28193;DHT22;15473;50.840;3.396;2023-04-03T17:59:12;15.90;99.90